createdAt,value
2018-05-02T00:00:08.143Z,27.37
2018-05-02T00:02:42.231Z,27.07
2018-05-02T00:05:14.418Z,28.30
2018-05-02T00:07:51.310Z,30.63
2018-05-02T00:10:23.555Z,28.67
2018-05-02T00:12:55.809Z,33.80
2018-05-02T00:15:27.852Z,34.73
2018-05-02T00:18:01.250Z,31.77
2018-05-02T00:20:33.970Z,35.43
2018-05-02T00:23:08.093Z,33.03
2018-05-02T00:25:40.738Z,41.13
2018-05-02T00:28:14.352Z,39.57
2018-05-02T00:30:47.016Z,39.23
2018-05-02T00:33:20.233Z,59.33
2018-05-02T00:35:53.771Z,52.33
2018-05-02T00:38:26.378Z,63.00
2018-05-02T00:40:58.631Z,65.63
2018-05-02T00:43:31.634Z,68.13
2018-05-02T00:46:05.136Z,54.20
2018-05-02T00:48:38.611Z,94.10
2018-05-02T00:51:10.557Z,70.00
2018-05-02T00:53:42.613Z,56.07
2018-05-02T00:56:14.591Z,71.93
2018-05-02T00:58:47.170Z,121.60
2018-05-02T01:01:20.492Z,140.07
2018-05-02T01:03:53.173Z,130.37
2018-05-02T01:06:25.292Z,119.00
2018-05-02T01:08:58.593Z,113.97
2018-05-02T01:11:31.432Z,94.03
2018-05-02T01:14:03.932Z,119.73
2018-05-02T01:16:35.971Z,150.17
2018-05-02T01:19:08.854Z,126.27
2018-05-02T01:21:41.177Z,99.97
2018-05-02T01:24:13.372Z,125.30
2018-05-02T01:26:45.395Z,138.23
2018-05-02T01:29:17.860Z,125.63
2018-05-02T01:31:51.101Z,110.23
2018-05-02T01:34:23.889Z,116.53
2018-05-02T01:36:56.156Z,135.07
2018-05-02T01:39:28.628Z,112.83
2018-05-02T01:42:02.231Z,113.87
2018-05-02T01:44:34.234Z,171.37
2018-05-02T01:47:06.852Z,152.93
2018-05-02T01:49:39.172Z,156.53
2018-05-02T01:52:11.175Z,184.00
2018-05-02T01:54:43.972Z,158.97
2018-05-02T01:57:16.209Z,185.83
2018-05-02T01:59:48.615Z,220.47
2018-05-02T02:02:21.615Z,173.10
2018-05-02T02:04:55.753Z,235.30
2018-05-02T02:07:27.858Z,168.10
2018-05-02T02:10:00.914Z,140.33
2018-05-02T02:12:33.105Z,130.20
2018-05-02T02:15:06.536Z,125.07
2018-05-02T02:17:40.013Z,121.13
2018-05-02T02:20:12.171Z,127.13
2018-05-02T02:22:45.037Z,162.97
2018-05-02T02:25:17.055Z,108.23
2018-05-02T02:27:49.073Z,201.77
2018-05-02T02:30:21.554Z,185.83
2018-05-02T02:32:53.376Z,134.60
2018-05-02T02:35:26.496Z,132.13
2018-05-02T02:37:59.917Z,225.73
2018-05-02T02:40:32.533Z,170.47
2018-05-02T02:43:07.435Z,145.37
2018-05-02T02:45:41.814Z,100.00
2018-05-02T02:48:14.419Z,168.27
2018-05-02T02:50:47.373Z,145.50
2018-05-02T02:53:20.634Z,222.47
2018-05-02T02:55:53.289Z,133.83
2018-05-02T02:58:28.752Z,326.80
2018-05-02T03:01:01.881Z,362.77
2018-05-02T03:03:35.952Z,301.43
2018-05-02T03:06:10.015Z,283.10
2018-05-02T03:08:42.377Z,373.93
2018-05-02T03:11:15.181Z,415.33
2018-05-02T03:13:49.979Z,429.43
2018-05-02T03:16:21.892Z,406.30
2018-05-02T03:18:54.412Z,458.87
2018-05-02T03:21:26.437Z,440.03
2018-05-02T03:23:58.714Z,431.13
2018-05-02T03:26:31.095Z,459.33
2018-05-02T03:29:04.691Z,426.90
2018-05-02T03:31:38.799Z,472.03
2018-05-02T03:34:29.114Z,474.20
2018-05-02T03:37:01.719Z,456.87
2018-05-02T03:39:36.697Z,470.23
2018-05-02T03:42:10.416Z,466.40
2018-05-02T03:44:43.434Z,471.60
2018-05-02T03:47:15.454Z,453.00
2018-05-02T03:49:48.932Z,376.97
2018-05-02T03:52:22.954Z,351.37
2018-05-02T03:54:55.912Z,340.67
2018-05-02T03:57:29.795Z,318.17
2018-05-02T04:00:19.914Z,358.27
2018-05-02T04:03:10.660Z,356.17
2018-05-02T04:05:59.411Z,341.00
2018-05-02T04:08:37.327Z,319.90
2018-05-02T04:11:13.412Z,385.40
2018-05-02T04:13:46.416Z,335.37
2018-05-02T04:16:20.356Z,455.97
2018-05-02T04:18:56.656Z,446.00
2018-05-02T04:21:29.975Z,472.47
2018-05-02T04:24:04.029Z,515.70
2018-05-02T04:26:39.117Z,476.27
2018-05-02T04:29:13.978Z,485.43
2018-05-02T04:31:48.612Z,491.90
2018-05-02T04:34:23.433Z,459.67
2018-05-02T04:36:59.715Z,484.50
2018-05-02T04:39:32.216Z,505.07
2018-05-02T04:42:04.738Z,470.37
2018-05-02T04:44:37.542Z,495.97
2018-05-02T04:47:17.232Z,471.50
2018-05-02T04:49:50.261Z,482.83
2018-05-02T04:52:24.275Z,460.33
2018-05-02T04:54:57.656Z,418.63
2018-05-02T04:57:31.395Z,477.03
2018-05-02T05:00:06.655Z,466.53
2018-05-02T05:02:41.269Z,497.90
2018-05-02T05:05:14.351Z,489.37
2018-05-02T05:07:47.109Z,395.43
2018-05-02T05:10:20.919Z,387.47
2018-05-02T05:12:54.112Z,303.07
2018-05-02T05:15:27.074Z,236.80
2018-05-02T05:18:00.058Z,208.00
2018-05-02T05:20:34.091Z,252.10
2018-05-02T05:23:09.356Z,222.87
2018-05-02T05:25:41.495Z,202.27
2018-05-02T05:28:17.548Z,211.33
2018-05-02T05:30:51.937Z,170.50
2018-05-02T05:33:26.119Z,187.10
2018-05-02T05:36:00.834Z,139.60
2018-05-02T05:38:35.136Z,122.13
2018-05-02T05:41:10.297Z,98.63
2018-05-02T05:43:44.639Z,91.50
2018-05-02T05:46:19.114Z,74.73
2018-05-02T05:48:52.756Z,66.33
2018-05-02T05:51:26.890Z,55.00
2018-05-02T05:54:03.299Z,50.17
2018-05-02T05:56:37.878Z,41.30
2018-05-02T05:59:10.492Z,36.57
2018-05-02T06:01:43.893Z,33.83
2018-05-02T06:04:18.851Z,30.30
2018-05-02T06:06:55.551Z,28.87
2018-05-02T06:09:36.695Z,27.63
2018-05-02T06:12:11.590Z,32.50
2018-05-02T06:14:46.402Z,27.17
2018-05-02T06:17:21.496Z,28.53
2018-05-02T06:19:58.497Z,20.87
2018-05-02T06:22:32.593Z,21.73
2018-05-02T06:25:07.219Z,66.97
2018-05-02T06:27:40.593Z,28.70
2018-05-02T06:30:14.351Z,38.17
2018-05-02T06:32:47.517Z,21.70
2018-05-02T06:35:22.840Z,21.30
2018-05-02T06:37:58.919Z,23.90
2018-05-02T06:40:33.437Z,21.47
2018-05-02T06:43:08.139Z,22.13
2018-05-02T06:45:41.777Z,24.80
2018-05-02T06:48:20.554Z,20.93
2018-05-02T06:50:56.954Z,21.00
2018-05-02T06:53:29.516Z,22.63
2018-05-02T06:56:04.816Z,20.90
2018-05-02T06:58:39.019Z,25.23
2018-05-02T07:01:12.014Z,27.40
2018-05-02T07:03:45.579Z,29.00
2018-05-02T07:06:18.293Z,29.40
2018-05-02T07:08:51.699Z,34.27
2018-05-02T07:11:25.393Z,28.30
2018-05-02T07:13:57.959Z,36.97
2018-05-02T07:16:31.256Z,33.73
2018-05-02T07:19:03.600Z,38.27
2018-05-02T07:21:36.692Z,34.93
2018-05-02T07:24:11.354Z,35.03
2018-05-02T07:26:44.152Z,40.40
2018-05-02T07:29:18.602Z,45.03
2018-05-02T07:31:51.013Z,50.53
2018-05-02T07:34:23.816Z,54.07
2018-05-02T07:36:58.360Z,52.50
2018-05-02T07:39:30.957Z,56.37
2018-05-02T07:42:06.846Z,62.40
2018-05-02T07:44:39.416Z,58.07
2018-05-02T07:47:15.895Z,64.93
2018-05-02T07:49:49.279Z,60.07
2018-05-02T07:52:24.036Z,52.47
2018-05-02T07:54:58.479Z,56.10
2018-05-02T07:57:32.496Z,55.50
2018-05-02T08:00:06.336Z,59.73
2018-05-02T08:02:40.733Z,55.43
2018-05-02T08:05:14.485Z,55.53
2018-05-02T08:07:49.896Z,57.90
2018-05-02T08:10:24.395Z,34.87
2018-05-02T08:12:56.694Z,37.23
2018-05-02T08:15:30.278Z,39.40
2018-05-02T08:18:08.875Z,34.37
2018-05-02T08:20:43.194Z,35.07
2018-05-02T08:23:16.118Z,36.17
2018-05-02T08:25:49.253Z,31.20
2018-05-02T08:28:23.617Z,33.77
2018-05-02T08:30:57.895Z,34.20
2018-05-02T08:33:34.853Z,635.45
2018-05-02T08:36:08.537Z,63.10
2018-05-02T08:38:41.694Z,50.23
2018-05-02T08:41:15.732Z,42.73
2018-05-02T08:43:48.353Z,42.03
2018-05-02T08:46:21.377Z,41.20
2018-05-02T08:48:55.719Z,45.73
2018-05-02T08:51:28.798Z,38.37
2018-05-02T08:54:01.894Z,51.30
2018-05-02T08:56:36.775Z,44.17
2018-05-02T08:59:10.519Z,50.60
2018-05-02T09:01:46.583Z,41.63
2018-05-02T09:04:19.576Z,36.47
2018-05-02T09:06:51.317Z,41.30
2018-05-02T09:09:24.480Z,51.40
2018-05-02T09:11:57.114Z,40.47
2018-05-02T09:14:30.940Z,37.90
2018-05-02T09:17:05.439Z,43.20
2018-05-02T09:19:41.634Z,35.13
2018-05-02T09:22:17.919Z,42.40
2018-05-02T09:24:50.699Z,39.13
2018-05-02T09:27:23.712Z,56.80
2018-05-02T09:29:56.595Z,49.00
2018-05-02T09:32:30.655Z,60.93
2018-05-02T09:35:03.579Z,59.63
2018-05-02T09:37:36.077Z,74.37
2018-05-02T09:40:10.914Z,60.67
2018-05-02T09:42:44.538Z,67.37
2018-05-02T09:45:18.114Z,66.10
2018-05-02T09:47:51.536Z,62.77
2018-05-02T09:50:23.998Z,76.40
2018-05-02T09:52:58.376Z,56.63
2018-05-02T09:55:31.931Z,76.03
2018-05-02T09:58:04.314Z,61.73
2018-05-02T10:00:37.012Z,58.77
2018-05-02T10:03:12.037Z,54.63
2018-05-02T10:05:45.955Z,55.07
2018-05-02T10:08:21.301Z,48.70
2018-05-02T10:10:55.666Z,60.87
2018-05-02T10:13:27.961Z,59.70
2018-05-02T10:16:00.595Z,65.53
2018-05-02T10:18:33.278Z,56.03
2018-05-02T10:21:06.253Z,60.87
2018-05-02T10:23:41.936Z,56.93
2018-05-02T10:26:18.025Z,52.50
2018-05-02T10:28:52.191Z,88.97
2018-05-02T10:31:25.597Z,78.17
2018-05-02T10:33:58.698Z,66.83
2018-05-02T10:36:31.675Z,89.20
2018-05-02T10:39:04.715Z,78.90
2018-05-02T10:41:37.476Z,75.43
2018-05-02T10:44:11.357Z,83.63
2018-05-02T10:46:45.374Z,90.93
2018-05-02T10:49:20.958Z,85.70
2018-05-02T10:51:53.172Z,69.77
2018-05-02T10:54:25.467Z,89.97
2018-05-02T10:56:57.897Z,92.37
2018-05-02T10:59:30.278Z,86.47
2018-05-02T11:02:04.246Z,92.40
2018-05-02T11:04:38.377Z,121.80
2018-05-02T11:07:10.996Z,94.00
2018-05-02T11:09:44.997Z,78.73
2018-05-02T11:12:18.650Z,107.73
2018-05-02T11:14:54.793Z,97.37
2018-05-02T11:17:28.137Z,91.50
2018-05-02T11:20:00.429Z,81.03
2018-05-02T11:22:34.315Z,108.20
2018-05-02T11:25:07.302Z,99.53
2018-05-02T11:27:40.474Z,105.43
2018-05-02T11:30:14.021Z,98.20
2018-05-02T11:32:46.493Z,113.07
2018-05-02T11:35:19.154Z,114.40
2018-05-02T11:37:53.815Z,100.17
2018-05-02T11:40:28.084Z,120.13
2018-05-02T11:43:02.218Z,57.13
2018-05-02T11:45:35.411Z,84.90
2018-05-02T11:48:08.753Z,85.93
2018-05-02T11:50:42.074Z,86.27
2018-05-02T11:53:15.253Z,66.40
2018-05-02T11:55:47.998Z,84.47
2018-05-02T11:58:22.620Z,55.17
2018-05-02T12:00:58.274Z,72.93
2018-05-02T12:03:31.395Z,77.90
2018-05-02T12:06:05.972Z,70.10
2018-05-02T12:08:41.592Z,67.93
2018-05-02T12:11:19.093Z,81.83
2018-05-02T12:13:51.279Z,63.37
2018-05-02T12:16:26.516Z,72.27
2018-05-02T12:19:01.573Z,68.27
2018-05-02T12:21:36.074Z,72.77
2018-05-02T12:24:10.675Z,97.87
2018-05-02T12:26:43.332Z,93.23
2018-05-02T12:29:15.850Z,74.00
2018-05-02T12:31:49.835Z,72.40
2018-05-02T12:34:22.853Z,83.50
2018-05-02T12:36:56.675Z,79.67
2018-05-02T12:39:31.422Z,76.20
2018-05-02T12:42:04.272Z,69.37
2018-05-02T12:44:37.201Z,69.80
2018-05-02T12:47:12.478Z,84.47
2018-05-02T12:49:47.096Z,89.97
2018-05-02T12:52:19.480Z,89.47
2018-05-02T12:54:51.697Z,123.37
2018-05-02T12:57:25.631Z,104.80
2018-05-02T12:59:57.316Z,97.27
2018-05-02T13:02:29.574Z,121.27
2018-05-02T13:05:05.121Z,96.60
2018-05-02T13:07:38.171Z,103.33
2018-05-02T13:10:12.938Z,102.47
2018-05-02T13:12:47.498Z,95.93
2018-05-02T13:15:21.613Z,102.90
2018-05-02T13:17:55.795Z,77.97
2018-05-02T13:20:30.789Z,68.73
2018-05-02T13:23:09.612Z,88.90
2018-05-02T13:25:44.517Z,85.17
2018-05-02T13:28:17.536Z,68.67
2018-05-02T13:30:51.971Z,89.20
2018-05-02T13:33:25.419Z,80.93
2018-05-02T13:35:57.977Z,97.10
2018-05-02T13:38:31.293Z,95.80
2018-05-02T13:41:08.294Z,107.83
2018-05-02T13:43:41.292Z,121.30
2018-05-02T13:46:14.333Z,78.77
2018-05-02T13:48:48.174Z,100.63
2018-05-02T13:51:23.814Z,120.03
2018-05-02T13:53:56.894Z,94.87
2018-05-02T13:56:32.354Z,113.53
2018-05-02T13:59:06.792Z,121.13
2018-05-02T14:01:40.135Z,101.23
2018-05-02T14:04:13.733Z,160.97
2018-05-02T14:06:47.079Z,135.87
2018-05-02T14:09:23.619Z,101.80
2018-05-02T14:12:20.052Z,134.43
2018-05-02T14:14:54.174Z,75.80
2018-05-02T14:17:27.454Z,113.70
2018-05-02T14:20:03.101Z,147.63
2018-05-02T14:22:37.438Z,116.53
2018-05-02T14:25:14.596Z,107.10
2018-05-02T14:27:47.876Z,89.20
2018-05-02T14:30:25.733Z,115.17
2018-05-02T14:33:02.113Z,85.00
2018-05-02T14:35:36.712Z,121.43
2018-05-02T14:38:11.712Z,99.20
2018-05-02T14:40:45.132Z,142.30
2018-05-02T14:43:22.259Z,115.10
2018-05-02T14:45:58.450Z,124.47
2018-05-02T14:48:35.157Z,124.20
2018-05-02T14:51:07.596Z,126.17
2018-05-02T14:53:39.350Z,146.20
2018-05-02T14:56:11.572Z,132.37
2018-05-02T14:58:45.370Z,90.10
2018-05-02T15:01:19.938Z,116.47
2018-05-02T15:03:52.791Z,129.57
2018-05-02T15:06:25.778Z,122.43
2018-05-02T15:08:59.956Z,90.57
2018-05-02T15:11:32.000Z,124.30
2018-05-02T15:14:04.023Z,110.00
2018-05-02T15:16:36.436Z,130.33
2018-05-02T15:19:10.413Z,124.70
2018-05-02T15:21:44.996Z,120.80
2018-05-02T15:24:21.293Z,128.17
2018-05-02T15:26:55.958Z,107.73
2018-05-02T15:29:30.172Z,116.83
2018-05-02T15:32:02.634Z,123.67
2018-05-02T15:34:38.094Z,135.60
2018-05-02T15:37:31.138Z,120.40
2018-05-02T15:40:07.365Z,111.03
2018-05-02T15:42:42.604Z,117.83
2018-05-02T15:45:14.865Z,124.30
2018-05-02T15:47:48.299Z,82.00
2018-05-02T15:50:22.852Z,139.37
2018-05-02T15:52:57.014Z,156.10
2018-05-02T15:55:31.439Z,104.47
2018-05-02T15:58:05.723Z,104.77
2018-05-02T16:00:38.053Z,94.23
2018-05-02T16:03:12.113Z,106.47
2018-05-02T16:05:45.336Z,97.23
2018-05-02T16:08:24.319Z,103.03
2018-05-02T16:10:56.555Z,111.57
2018-05-02T16:13:29.799Z,108.13
2018-05-02T16:16:03.975Z,128.70
2018-05-02T16:18:37.814Z,128.27
2018-05-02T16:21:12.676Z,106.03
2018-05-02T16:23:45.736Z,100.80
2018-05-02T16:26:23.230Z,79.70
2018-05-02T16:28:58.631Z,117.03
2018-05-02T16:31:32.203Z,91.33
2018-05-02T16:34:06.197Z,92.77
2018-05-02T16:36:38.914Z,68.77
2018-05-02T16:39:14.535Z,64.90
2018-05-02T16:41:49.070Z,75.10
2018-05-02T16:44:22.392Z,74.07
2018-05-02T16:46:58.691Z,87.23
2018-05-02T16:49:33.435Z,94.60
2018-05-02T16:52:07.072Z,84.47
2018-05-02T16:54:39.654Z,87.50
2018-05-02T16:57:15.194Z,86.77
2018-05-02T16:59:49.315Z,89.10
2018-05-02T17:02:24.758Z,92.10
2018-05-02T17:05:00.460Z,89.00
2018-05-02T17:07:32.835Z,81.30
2018-05-02T17:10:09.113Z,73.57
2018-05-02T17:12:42.132Z,78.57
2018-05-02T17:15:16.135Z,74.07
2018-05-02T17:17:48.841Z,72.70
2018-05-02T17:20:22.054Z,71.67
2018-05-02T17:22:55.511Z,63.67
2018-05-02T17:25:28.893Z,64.47
2018-05-02T17:28:02.056Z,63.03
2018-05-02T17:30:35.653Z,69.70
2018-05-02T17:33:10.631Z,71.53
2018-05-02T17:35:43.735Z,65.83
2018-05-02T17:38:16.597Z,68.40
2018-05-02T17:40:50.167Z,72.37
2018-05-02T17:43:23.097Z,71.73
2018-05-02T17:45:55.243Z,77.60
2018-05-02T17:48:28.960Z,85.60
2018-05-02T17:51:01.209Z,72.33
2018-05-02T17:53:34.852Z,78.13
2018-05-02T17:56:08.533Z,71.07
2018-05-02T17:58:46.262Z,72.13
2018-05-02T18:01:24.474Z,74.50
2018-05-02T18:03:57.255Z,68.80
2018-05-02T18:06:30.773Z,69.73
2018-05-02T18:09:05.499Z,70.83
2018-05-02T18:11:38.154Z,68.57
2018-05-02T18:14:12.338Z,65.60
2018-05-02T18:16:47.097Z,64.97
2018-05-02T18:19:20.215Z,60.53
2018-05-02T18:21:52.521Z,59.77
2018-05-02T18:24:28.774Z,57.10
2018-05-02T18:27:02.379Z,52.10
2018-05-02T18:29:35.476Z,49.03
2018-05-02T18:32:09.356Z,49.80
2018-05-02T18:34:42.793Z,39.17
2018-05-02T18:37:16.012Z,47.40
2018-05-02T18:39:48.610Z,49.60
2018-05-02T18:42:22.091Z,45.20
2018-05-02T18:44:54.153Z,47.97
2018-05-02T18:47:30.519Z,48.70
2018-05-02T18:50:03.000Z,47.47
2018-05-02T18:52:36.316Z,49.83
2018-05-02T18:55:10.154Z,51.07
2018-05-02T18:57:42.597Z,48.17
2018-05-02T19:00:17.798Z,49.53
2018-05-02T19:02:50.315Z,47.70
2018-05-02T19:05:24.694Z,50.47
2018-05-02T19:07:58.731Z,46.67
2018-05-02T19:10:31.256Z,48.67
2018-05-02T19:13:04.594Z,48.70
2018-05-02T19:15:38.717Z,44.47
2018-05-02T19:21:24.492Z,46.43
2018-05-02T19:23:57.847Z,43.70
2018-05-02T19:26:37.613Z,51.10
2018-05-02T19:29:09.010Z,49.90
2018-05-02T19:31:46.995Z,48.07
2018-05-02T19:34:20.077Z,52.20
2018-05-02T19:36:53.219Z,45.23
2018-05-02T19:39:27.130Z,43.83
2018-05-02T19:42:05.916Z,45.37
2018-05-02T19:44:39.035Z,50.23
2018-05-02T19:47:14.217Z,46.13
2018-05-02T19:49:47.337Z,47.90
2018-05-02T19:52:25.815Z,52.17
2018-05-02T19:54:59.173Z,51.57
2018-05-02T19:57:33.159Z,52.10
2018-05-02T20:00:05.763Z,48.73
2018-05-02T20:02:43.545Z,47.47
2018-05-02T20:05:15.907Z,46.30
2018-05-02T20:07:50.075Z,45.37
2018-05-02T20:10:27.497Z,49.27
2018-05-02T20:13:05.655Z,49.33
2018-05-02T20:15:39.318Z,50.37
2018-05-02T20:18:13.182Z,53.27
2018-05-02T20:20:47.661Z,53.37
2018-05-02T20:23:19.955Z,53.33
2018-05-02T20:25:55.737Z,55.73
2018-05-02T20:28:30.877Z,47.73
2018-05-02T20:31:06.592Z,52.80
2018-05-02T20:33:39.842Z,55.33
2018-05-02T20:36:13.360Z,50.53
2018-05-02T20:38:47.179Z,53.10
2018-05-02T20:41:19.736Z,49.90
2018-05-02T20:43:54.779Z,51.63
2018-05-02T20:46:32.193Z,41.30
2018-05-02T20:49:06.892Z,45.73
2018-05-02T20:51:41.174Z,41.70
2018-05-02T20:54:16.138Z,43.43
2018-05-02T20:56:53.740Z,48.30
2018-05-02T20:59:27.737Z,48.57
2018-05-02T21:02:01.199Z,45.90
2018-05-02T21:04:34.721Z,47.53
2018-05-02T21:07:06.999Z,62.87
2018-05-02T21:09:39.835Z,188.97
2018-05-02T21:12:12.696Z,107.83
2018-05-02T21:14:46.543Z,110.03
2018-05-02T21:17:23.054Z,110.20
2018-05-02T21:20:01.116Z,93.43
2018-05-02T21:22:35.613Z,106.23
2018-05-02T21:25:10.337Z,102.37
2018-05-02T21:27:43.235Z,133.13
2018-05-02T21:30:16.253Z,154.93
2018-05-02T21:32:48.914Z,157.57
2018-05-02T21:35:21.097Z,187.53
2018-05-02T21:37:53.336Z,219.40
2018-05-02T21:40:25.418Z,169.57
2018-05-02T21:42:58.554Z,154.00
2018-05-02T21:45:30.563Z,152.43
2018-05-02T21:48:02.755Z,160.73
2018-05-02T21:50:36.220Z,216.67
2018-05-02T21:53:08.833Z,234.80
2018-05-02T21:55:42.054Z,122.73
2018-05-02T21:58:18.249Z,81.03
2018-05-02T22:00:58.601Z,82.23
2018-05-02T22:03:31.751Z,93.97
2018-05-02T22:06:07.416Z,100.93
2018-05-02T22:08:42.692Z,119.13
2018-05-02T22:33:26.581Z,49.20
2018-05-02T22:36:00.285Z,68.80
2018-05-02T22:38:33.221Z,73.70
2018-05-02T22:41:05.580Z,73.03
2018-05-02T22:43:37.562Z,57.70
2018-05-02T22:46:11.224Z,77.33
2018-05-02T22:48:44.812Z,84.63
2018-05-02T22:51:17.162Z,89.17
2018-05-02T22:53:49.727Z,100.90
2018-05-02T22:56:22.082Z,109.27
2018-05-02T22:58:54.362Z,112.97
2018-05-02T23:01:27.680Z,123.23
2018-05-02T23:04:00.226Z,123.13
2018-05-02T23:06:32.621Z,105.63
2018-05-02T23:09:05.160Z,139.03
2018-05-02T23:11:38.083Z,148.63
2018-05-02T23:14:12.900Z,154.73
2018-05-02T23:16:45.418Z,156.37
2018-05-02T23:19:21.405Z,155.33
2018-05-02T23:21:54.565Z,172.57
2018-05-02T23:24:31.042Z,167.80
2018-05-02T23:27:06.282Z,172.90
2018-05-02T23:29:39.402Z,169.30
2018-05-02T23:32:12.478Z,162.60
2018-05-02T23:34:49.428Z,169.23
2018-05-02T23:37:24.591Z,166.90
2018-05-02T23:39:59.398Z,167.80
2018-05-02T23:42:32.184Z,186.93
2018-05-02T23:45:05.963Z,172.07
2018-05-02T23:47:40.199Z,168.67
2018-05-02T23:50:15.060Z,175.53
2018-05-02T23:52:50.025Z,161.47
2018-05-02T23:55:22.902Z,150.47
2018-05-02T23:57:56.999Z,162.07
